首页
METAR-TAF:

METAR-TAF

机场 :

敖德薩國際機場

敖德薩, 乌克兰

纬度: 46-26N, 经度: 030-46E, 海拔: 42米

当前天气观测

该预报发布于26分钟前的15:00 UTC
风速8节,风向东转东南,在东转东北南转南东之间变化
温度 30°C
湿度 35%
气压 1013 hPa
能见度10公里或以上
1500米以下无云,无积雨云

METAR: UKOO 171500Z 12004MPS 070V150 CAVOK 30/13 Q1013 R16/090060 NOSIG

时间: 18:26 (15:26 UTC)

预报

该预报发布于4小时和21分钟前的11:05 UTC
预报有效从17日的 12点(UTC)到 18日的 12点(UTC)
风速10节,风向北转东北,有时为19节阵风
能见度10公里或以上
散云层高于1500英尺
散云层高于2000英尺, 积雨云.
几率 40% :
短暂存在
从 17日的 12点(UTC)到 17日的 18点(UTC)
风速17节,风向多变,有时为35节阵风
能見度: 2100
雷暴, 小雨, 冰雹, 飑
成为
从 17日的 21点(UTC)到 17日的 22点(UTC)
风速6节,风向东转东北

TAF: UKOO 171105Z 1712/1812 03005G10MPS 9999 SCT015 SCT020CB TX31/1712Z TN21/1802Z PROB40 TEMPO 1712/1718 VRB09G18MPS 2100 -TSRAGR SQ BECMG 1721/1722 07003MPS

超过4000个机场的气象观测和天气预报(METAR&TAF报告)。

可查询的气象台以黄色和红色小点在地图上表示。

将鼠标移到小点上方,可查看气象台名称。

然后点击查看天气观测和预报。

如需切换地图:点击带黑十字的绿色按钮放大地图;点击带横线的绿色按钮缩小地图;或者点击绿色箭头查看邻近地区的地图。


METAR-TAF: